Terminal Aerodrome Forecast
Issued by NWS

Home | Current Version | Previous Version | Text Only | Print | Product List | Glossary On
Versions: 1 2 3 4 5 6 7 8 9 10 11 12 13 14 15 16 17 18 19 20 21 22 23
000
FTUS43 KIND 230802 AAB
TAFHUF
TAF AMD
KHUF 230802Z 2308/2406 00000KT 1SM BR SCT030
      TEMPO 2308/2311 1/4SM FG VV001
     FM231100 00000KT 2SM BR BKN030 BKN100
      TEMPO 2311/2313 1SM BR BKN009 OVC030
     FM231400 00000KT 4SM BR FEW010 OVC050
     FM232000 VRB03KT P6SM BKN100=

USA.gov is the U.S. government's official web portal to all federal, state and local government web resources and services.